Ellenburg Center, NY (12934)

7:02 PM EST on February 06, 2016 (GMT -0500)
Ellenburg Depot | | Change Station
CLOSE
Current Station
Personal Weather Station
Location: Ellenburg Depot, NY
Elevation: 1000 ft
Nearby Weather Stations

Elev 1000 ft 44.91 °N, 73.82 °W | Updated 6 seconds ago

Snow
Snow
32.0 °F
Feels Like 27 °F
N
5.0
Wind Variable Wind from WSW
Gusts 14.0 mph

Today
High -- | Low -- °F
--% Chance of Precip.
Yesterday
High -- | Low -- °F
Precip. -- in
Pressure 30.13 in
Visibility 10.0 miles
Clouds Overcast 4800 ft
Windchill 27 °F
Dew Point 25 °F
Humidity 74%
Rainfall 0.05 in
Snow Depth Not available.
7:09 AM 5:10 PM
Waning Crescent, 3% visible
METAR KPBG 062353Z AUTO 18004KT 10SM OVC048 02/M05 A3011 RMK AO2 SLP201 T00221050 10033 20017 51003
Pressure 30.13 in
Visibility 10.0 miles
Clouds Overcast 4800 ft
Windchill 27 °F
Dew Point 25 °F
Humidity 74%
Rainfall 0.05 in
Snow Depth Not available.
7:09 AM 5:10 PM
Waning Crescent, 3% visible
METAR KPBG 062353Z AUTO 18004KT 10SM OVC048 02/M05 A3011 RMK AO2 SLP201 T00221050 10033 20017 51003

10-Day Weather Forecast

Almanac

Astronomy

Feb. 06, 2016 Rise Set
Actual Time
Civil Twilight
Nautical Twilight
Astronomical Twilight
Moon
Length of Visible Light
Length of Day
Tomorrow will be .
, % of the Moon is Illuminated

Today's Extremes

State Highs State Lows

Community

WunderPhotos

Upload Photos

1,891,105 photos uploaded!

WunderBlog® & News

Nearby

Air Quality

  Air Quality AQ Index Pollutant
Not available.

Snow Depth

Station Depth Elevation

Earthquake Activity

City Distance Mag. Time & Date
Minimum magnitude displayed is 2.5.

Coastal Water Temperatures

Place Temperature

Stations

Nearby Weather Stations

Station Location Temp. Windchill Dew Point Humidity Wind Precip. Elev Updated Type
                   

Watches & Warnings

There are currently no watches in effect.